Time;durP1;ratioP1;P1;durP2;ratioP2;P2;SDS_P1;SDS_P2;PMS_P1;PMS_P2;Temp;Humidity;BMP_temperature;BMP_pressure;BME280_temperature;BME280_humidity;BME280_pressure;Samples;Min_cycle;Max_cycle;Signal;HPM_P1;HPM_P2
2023/05/14 00:00:34;;;;;;;;;;;;;;;19.10;62.26;98417.16;2074833;28;19978;-48
2023/05/14 00:01:35;;;;;;;;;;;;;;;19.11;62.46;98419.63;2079132;28;19978;-47
2023/05/14 00:02:36;;;;;;;;;;;;;;;19.10;62.29;98417.97;2078094;28;19921;-47
2023/05/14 00:03:39;;;;;;;;;;;;;;;19.13;62.35;98414.84;2076814;28;19920;-47
2023/05/14 00:04:41;;;;;;;;;;;;;;;19.10;62.39;98414.47;2074117;28;20007;-49
2023/05/14 00:05:41;;;;;;;;;;;;;;;19.13;62.44;98411.34;2076712;28;19929;-48
2023/05/14 00:06:42;;;;;;;;;;;;;;;19.13;62.40;98411.34;2075814;28;20399;-46
2023/05/14 00:07:43;;;;;;;;;;;;;;;19.14;62.22;98410.31;2076807;28;20345;-46
2023/05/14 00:08:46;;;;;;;;;;;;;;;19.10;62.43;98409.91;2076472;28;19925;-46
2023/05/14 00:09:46;;;;;;;;;;;;;;;19.12;62.57;98407.84;2076729;28;19925;-45
2023/05/14 00:10:48;;;;;;;;;;;;;;;19.13;62.41;98405.97;2075628;28;19995;-48
2023/05/14 00:11:48;;;;;;;;;;;;;;;19.12;62.38;98407.03;2074053;28;19925;-49
2023/05/14 00:12:50;;;;;;;;;;;;;;;19.11;62.22;98408.88;2076593;28;19966;-47
2023/05/14 00:13:51;;;;;;;;;;;;;;;19.09;62.36;98408.28;2077319;28;19951;-45
2023/05/14 00:14:52;;;;;;;;;;;;;;;19.11;62.52;98416.94;2076743;28;19974;-44
2023/05/14 00:15:53;;;;;;;;;;;;;;;19.10;62.33;98403.72;2076252;28;19928;-48
2023/05/14 00:16:54;;;;;;;;;;;;;;;19.10;62.37;98409.09;2076625;28;19924;-45
2023/05/14 00:17:55;;;;;;;;;;;;;;;19.09;62.21;98407.44;2075957;28;20611;-48
2023/05/14 00:18:56;;;;;;;;;;;;;;;19.09;62.53;98407.44;2076230;28;19921;-46
2023/05/14 00:19:58;;;;;;;;;;;;;;;19.10;62.46;98409.09;2075587;28;19942;-47
2023/05/14 00:20:59;;;;;;;;;;;;;;;19.11;62.53;98406.19;2076039;28;19945;-45
2023/05/14 00:22:00;;;;;;;;;;;;;;;19.09;62.52;98402.88;2077256;28;19929;-48
2023/05/14 00:23:01;;;;;;;;;;;;;;;19.12;62.12;98407.03;2077113;28;19924;-47
2023/05/14 00:24:03;;;;;;;;;;;;;;;19.11;62.39;98403.50;2076818;28;19920;-47
2023/05/14 00:25:06;;;;;;;;;;;;;;;19.10;62.27;98401.84;2076017;28;19935;-47
2023/05/14 00:26:07;;;;;;;;;;;;;;;19.10;62.48;98392.97;2075888;28;20262;-47
2023/05/14 00:27:08;;;;;;;;;;;;;;;19.09;62.57;98397.50;2077055;28;20035;-48
2023/05/14 00:28:09;;;;;;;;;;;;;;;19.10;62.65;98395.66;2076668;28;19968;-52
2023/05/14 00:29:10;;;;;;;;;;;;;;;19.09;62.40;98394.81;2075327;28;19928;-47
2023/05/14 00:30:11;;;;;;;;;;;;;;;19.10;62.14;98398.34;2076648;28;19921;-49
2023/05/14 00:31:13;;;;;;;;;;;;;;;19.08;62.57;98392.34;2076309;28;19950;-47
2023/05/14 00:32:14;;;;;;;;;;;;;;;19.09;62.31;98396.69;2075698;28;19974;-48
2023/05/14 00:33:15;;;;;;;;;;;;;;;19.06;62.57;98392.56;2077857;28;19987;-47
2023/05/14 00:34:16;;;;;;;;;;;;;;;19.07;62.60;98396.88;2076687;28;19979;-46
2023/05/14 00:35:19;;;;;;;;;;;;;;;19.07;62.51;98391.50;2075714;28;19963;-48
2023/05/14 00:36:19;;;;;;;;;;;;;;;19.06;62.32;98391.75;2076530;28;19925;-48
2023/05/14 00:37:21;;;;;;;;;;;;;;;19.08;62.33;98392.34;2076317;28;20501;-47
2023/05/14 00:38:23;;;;;;;;;;;;;;;19.08;62.49;98389.66;2075417;28;19921;-44
2023/05/14 00:39:25;;;;;;;;;;;;;;;19.08;62.59;98392.34;2076331;28;19921;-49
2023/05/14 00:40:26;;;;;;;;;;;;;;;19.09;62.29;98392.13;2076434;28;20365;-47
2023/05/14 00:41:27;;;;;;;;;;;;;;;19.08;62.38;98384.28;2076293;28;19933;-49
2023/05/14 00:42:28;;;;;;;;;;;;;;;19.07;62.57;98382.63;2075693;28;20342;-49
2023/05/14 00:43:30;;;;;;;;;;;;;;;19.08;62.41;98376.22;2075292;28;19929;-48
2023/05/14 00:44:31;;;;;;;;;;;;;;;19.08;62.30;98370.84;2076584;28;19929;-48
2023/05/14 00:45:32;;;;;;;;;;;;;;;19.08;62.44;98366.28;2078226;28;20417;-45
2023/05/14 00:46:33;;;;;;;;;;;;;;;19.08;62.48;98368.16;2075371;28;19998;-50
2023/05/14 00:47:35;;;;;;;;;;;;;;;19.09;62.31;98361.75;2074686;28;19971;-48
2023/05/14 00:48:35;;;;;;;;;;;;;;;19.09;62.27;98364.44;2075833;28;19972;-46
2023/05/14 00:49:38;;;;;;;;;;;;;;;19.07;62.55;98358.44;2074539;28;19938;-47
2023/05/14 00:50:39;;;;;;;;;;;;;;;19.08;62.32;98357.38;2074438;28;19931;-46
2023/05/14 00:51:41;;;;;;;;;;;;;;;19.06;62.65;98349.56;2074961;28;19940;-46
2023/05/14 00:52:41;;;;;;;;;;;;;;;19.08;62.37;98349.31;2076120;28;19956;-49
2023/05/14 00:53:43;;;;;;;;;;;;;;;19.06;62.36;98351.44;2077348;28;19931;-48
2023/05/14 00:54:45;;;;;;;;;;;;;;;19.06;62.28;98354.13;2076516;28;19928;-50
2023/05/14 00:55:48;;;;;;;;;;;;;;;19.05;62.23;98349.75;2077352;28;20841;-45
2023/05/14 00:56:49;;;;;;;;;;;;;;;19.07;62.54;98353.06;2074964;28;20656;-49
2023/05/14 00:57:51;;;;;;;;;;;;;;;19.06;62.27;98354.94;2075664;28;19935;-49
2023/05/14 00:58:51;;;;;;;;;;;;;;;19.06;62.31;98354.13;2076634;28;19925;-45
2023/05/14 00:59:53;;;;;;;;;;;;;;;19.05;62.24;98355.13;2074690;28;19982;-50
2023/05/14 01:00:53;;;;;;;;;;;;;;;19.04;62.47;98348.13;2076841;28;19958;-46
2023/05/14 01:01:55;;;;;;;;;;;;;;;19.05;62.24;98347.88;2076417;28;19974;-49
2023/05/14 01:02:55;;;;;;;;;;;;;;;19.04;62.65;98340.88;2075522;28;20476;-50
2023/05/14 01:03:57;;;;;;;;;;;;;;;19.04;62.27;98345.44;2074852;28;20015;-47
2023/05/14 01:04:58;;;;;;;;;;;;;;;19.05;62.27;98347.06;2075443;28;19999;-48
2023/05/14 01:06:05;;;;;;;;;;;;;;;19.04;62.29;98345.44;2076091;28;19927;-46
2023/05/14 01:07:11;;;;;;;;;;;;;;;19.04;62.57;98348.94;2075624;28;19938;-47
2023/05/14 01:08:16;;;;;;;;;;;;;;;19.04;62.24;98337.38;2077483;28;19927;-51
2023/05/14 01:09:21;;;;;;;;;;;;;;;19.05;62.46;98339.00;2076513;28;19928;-49
2023/05/14 01:10:27;;;;;;;;;;;;;;;19.04;62.29;98337.38;2075919;28;19929;-44
2023/05/14 01:11:30;;;;;;;;;;;;;;;19.05;62.28;98341.69;2076707;28;20058;-45
2023/05/14 01:12:34;;;;;;;;;;;;;;;19.03;62.25;98341.91;2076672;28;20529;-52
2023/05/14 01:13:40;;;;;;;;;;;;;;;19.01;62.53;98330.56;2076816;28;19925;-49
2023/05/14 01:14:49;;;;;;;;;;;;;;;19.03;62.27;98338.38;2077170;28;19920;-49
2023/05/14 01:15:51;;;;;;;;;;;;;;;19.03;62.14;98336.56;2076523;28;20252;-49
2023/05/14 01:16:56;;;;;;;;;;;;;;;19.04;62.33;98340.88;2076456;28;19978;-47
2023/05/14 01:18:00;;;;;;;;;;;;;;;19.03;62.27;98336.56;2077309;28;19925;-48
2023/05/14 01:19:02;;;;;;;;;;;;;;;19.02;62.16;98334.88;2076606;28;19958;-49
2023/05/14 01:20:03;;;;;;;;;;;;;;;19.02;62.19;98342.94;2076591;28;19932;-49
2023/05/14 01:21:05;;;;;;;;;;;;;;;19.02;62.48;98331.38;2076113;28;20795;-48
2023/05/14 01:22:07;;;;;;;;;;;;;;;19.02;62.30;98334.88;2076856;28;20421;-46
2023/05/14 01:23:08;;;;;;;;;;;;;;;19.02;62.55;98336.75;2075170;28;19925;-44
2023/05/14 01:24:08;;;;;;;;;;;;;;;19.03;62.55;98333.84;2075584;28;20437;-47
2023/05/14 01:25:10;;;;;;;;;;;;;;;19.03;62.16;98336.56;2076692;28;19928;-46
2023/05/14 01:26:10;;;;;;;;;;;;;;;19.03;62.29;98339.22;2077169;28;20361;-49
2023/05/14 01:27:17;;;;;;;;;;;;;;;19.02;62.48;98334.88;2076557;28;19932;-47
2023/05/14 01:28:18;;;;;;;;;;;;;;;19.04;62.23;98342.75;2078052;28;20425;-48
2023/05/14 01:29:21;;;;;;;;;;;;;;;19.04;62.42;98337.38;2075113;28;19925;-47
2023/05/14 01:30:23;;;;;;;;;;;;;;;19.02;62.23;98342.94;2075435;28;19921;-50
2023/05/14 01:31:27;;;;;;;;;;;;;;;19.04;62.27;98335.50;2076482;28;19971;-50
2023/05/14 01:32:29;;;;;;;;;;;;;;;19.03;62.35;98333.84;2075691;28;19921;-48
2023/05/14 01:33:33;;;;;;;;;;;;;;;19.04;62.43;98326.63;2077070;28;19925;-50
2023/05/14 01:34:35;;;;;;;;;;;;;;;19.03;62.20;98327.63;2076362;28;19928;-47
2023/05/14 01:35:36;;;;;;;;;;;;;;;19.03;62.38;98320.41;2075788;28;20745;-44
2023/05/14 01:36:37;;;;;;;;;;;;;;;19.03;62.17;98325.78;2075949;28;19924;-50
2023/05/14 01:37:41;;;;;;;;;;;;;;;19.04;62.20;98332.00;2075392;28;19925;-47
2023/05/14 01:38:44;;;;;;;;;;;;;;;19.03;62.39;98327.63;2076167;28;19928;-46
2023/05/14 01:39:46;;;;;;;;;;;;;;;19.02;62.20;98326.81;2078471;28;19925;-49
2023/05/14 01:40:47;;;;;;;;;;;;;;;19.02;62.21;98326.00;2075307;28;19928;-47
2023/05/14 01:41:50;;;;;;;;;;;;;;;19.02;62.06;98332.19;2078027;28;20569;-54
2023/05/14 01:42:51;;;;;;;;;;;;;;;19.02;62.34;98326.00;2077929;28;19929;-45
2023/05/14 01:43:53;;;;;;;;;;;;;;;19.02;62.30;98323.31;2079148;28;20347;-46
2023/05/14 01:44:53;;;;;;;;;;;;;;;19.03;62.38;98320.41;2079467;28;20975;-46
2023/05/14 01:45:55;;;;;;;;;;;;;;;19.04;62.16;98327.44;2078738;28;19924;-47
2023/05/14 01:46:55;;;;;;;;;;;;;;;19.03;62.39;98320.41;2079222;28;19925;-48
2023/05/14 01:47:57;;;;;;;;;;;;;;;19.02;62.18;98321.44;2077899;28;20910;-47
2023/05/14 01:48:57;;;;;;;;;;;;;;;19.03;62.43;98324.94;2077678;28;19928;-47
2023/05/14 01:49:59;;;;;;;;;;;;;;;19.02;62.17;98320.63;2077418;28;19921;-48
2023/05/14 01:50:59;;;;;;;;;;;;;;;19.02;62.16;98321.44;2079337;28;20483;-47
2023/05/14 01:52:01;;;;;;;;;;;;;;;19.01;62.32;98317.13;2078580;28;19987;-46
2023/05/14 01:53:03;;;;;;;;;;;;;;;19.01;62.33;98317.13;2078504;28;20450;-45
2023/05/14 01:54:04;;;;;;;;;;;;;;;19.01;62.57;98316.28;2077727;28;19978;-46
2023/05/14 01:55:05;;;;;;;;;;;;;;;19.01;62.03;98317.13;2078381;28;19924;-46
2023/05/14 01:56:07;;;;;;;;;;;;;;;18.98;62.24;98310.31;2080620;28;19925;-46
2023/05/14 01:57:07;;;;;;;;;;;;;;;18.98;62.65;98310.31;2078795;28;20432;-46
2023/05/14 01:58:08;;;;;;;;;;;;;;;19.00;62.60;98314.63;2079866;28;19937;-47
2023/05/14 01:59:09;;;;;;;;;;;;;;;18.99;62.34;98305.75;2079026;28;20442;-46
2023/05/14 02:00:11;;;;;;;;;;;;;;;18.99;62.07;98305.75;2077831;28;19939;-46
2023/05/14 02:01:11;;;;;;;;;;;;;;;19.00;62.37;98307.41;2077398;28;20781;-46
2023/05/14 02:02:13;;;;;;;;;;;;;;;19.00;62.03;98309.25;2079347;28;19921;-46
2023/05/14 02:03:13;;;;;;;;;;;;;;;19.00;62.48;98306.56;2077870;28;19933;-45
2023/05/14 02:04:14;;;;;;;;;;;;;;;19.00;62.22;98306.56;2080989;28;19924;-47
2023/05/14 02:05:15;;;;;;;;;;;;;;;18.99;62.32;98305.75;2078227;28;19925;-45
2023/05/14 02:06:16;;;;;;;;;;;;;;;18.99;62.46;98300.38;2076740;28;19921;-46
2023/05/14 02:07:17;;;;;;;;;;;;;;;19.01;61.99;98308.22;2075739;28;20101;-46
2023/05/14 02:08:20;;;;;;;;;;;;;;;19.00;62.21;98301.19;2077096;28;20019;-47
2023/05/14 02:09:20;;;;;;;;;;;;;;;19.01;62.37;98302.84;2075913;28;20514;-46
2023/05/14 02:10:21;;;;;;;;;;;;;;;18.97;62.51;98302.44;2077098;28;19920;-46
2023/05/14 02:11:22;;;;;;;;;;;;;;;18.98;62.14;98304.09;2077638;28;19946;-46
2023/05/14 02:12:23;;;;;;;;;;;;;;;18.97;62.35;98300.59;2078532;28;19979;-46
2023/05/14 02:13:24;;;;;;;;;;;;;;;18.97;62.06;98303.28;2077363;28;19925;-45
2023/05/14 02:14:25;;;;;;;;;;;;;;;18.99;62.42;98297.69;2080359;28;19928;-46
2023/05/14 02:15:26;;;;;;;;;;;;;;;18.97;62.18;98300.59;2076089;28;21138;-46
2023/05/14 02:16:27;;;;;;;;;;;;;;;18.96;62.13;98290.06;2077247;28;19925;-45
2023/05/14 02:17:28;;;;;;;;;;;;;;;18.97;62.30;98286.31;2077318;28;19982;-45
2023/05/14 02:18:30;;;;;;;;;;;;;;;18.98;62.41;98296.03;2078231;28;19967;-46
2023/05/14 02:19:30;;;;;;;;;;;;;;;18.97;62.19;98291.69;2076462;28;19921;-48
2023/05/14 02:20:31;;;;;;;;;;;;;;;18.98;62.23;98285.28;2078576;28;19925;-47
2023/05/14 02:21:32;;;;;;;;;;;;;;;18.95;62.15;98289.22;2076772;28;19974;-46
2023/05/14 02:22:33;;;;;;;;;;;;;;;18.95;62.33;98283.84;2080431;28;20034;-47
2023/05/14 02:23:35;;;;;;;;;;;;;;;18.97;62.46;98283.63;2076734;28;19928;-45
2023/05/14 02:24:37;;;;;;;;;;;;;;;18.98;62.16;98278.03;2077735;28;20399;-47
2023/05/14 02:25:37;;;;;;;;;;;;;;;18.97;62.10;98279.09;2076106;28;19921;-48
2023/05/14 02:26:39;;;;;;;;;;;;;;;18.96;62.20;98274.75;2077290;28;19983;-47
2023/05/14 02:27:39;;;;;;;;;;;;;;;18.98;62.10;98267.28;2077950;28;19968;-47
2023/05/14 02:28:40;;;;;;;;;;;;;;;18.98;62.20;98267.28;2078433;28;20382;-47
2023/05/14 02:29:41;;;;;;;;;;;;;;;18.96;62.34;98264.00;2079403;28;19924;-45
2023/05/14 02:30:42;;;;;;;;;;;;;;;18.96;62.15;98269.38;2078273;28;19928;-46
2023/05/14 02:31:43;;;;;;;;;;;;;;;18.95;62.20;98265.03;2077664;28;20708;-46
2023/05/14 02:32:44;;;;;;;;;;;;;;;18.95;62.39;98261.53;2076913;28;19924;-47
2023/05/14 02:33:45;;;;;;;;;;;;;;;18.96;62.25;98264.00;2078209;28;19921;-47
2023/05/14 02:34:46;;;;;;;;;;;;;;;18.97;62.14;98251.38;2077953;28;20264;-47
2023/05/14 02:35:47;;;;;;;;;;;;;;;18.93;62.26;98253.69;2077666;28;19924;-47
2023/05/14 02:36:48;;;;;;;;;;;;;;;18.94;62.28;98254.50;2077365;28;20421;-48
2023/05/14 02:37:48;;;;;;;;;;;;;;;18.95;62.16;98250.78;2078212;28;20334;-45
2023/05/14 02:38:51;;;;;;;;;;;;;;;18.94;62.38;98252.66;2078339;28;19929;-45
2023/05/14 02:39:52;;;;;;;;;;;;;;;18.95;62.35;98250.78;2076621;28;19925;-48
2023/05/14 02:40:53;;;;;;;;;;;;;;;18.95;62.29;98250.78;2077015;28;19975;-50
2023/05/14 02:41:54;;;;;;;;;;;;;;;18.94;62.10;98249.97;2078879;28;19975;-49
2023/05/14 02:42:55;;;;;;;;;;;;;;;18.94;62.22;98247.28;2078627;28;20006;-48
2023/05/14 02:43:56;;;;;;;;;;;;;;;18.96;62.34;98247.03;2077867;28;19920;-49
2023/05/14 02:44:57;;;;;;;;;;;;;;;18.94;62.00;98239.22;2076113;28;19971;-46
2023/05/14 02:45:57;;;;;;;;;;;;;;;18.94;62.17;98244.59;2076448;28;19974;-47
2023/05/14 02:46:59;;;;;;;;;;;;;;;18.96;62.26;98241.66;2075888;28;19924;-49
2023/05/14 02:47:59;;;;;;;;;;;;;;;18.94;62.25;98239.22;2077002;28;20460;-49
2023/05/14 02:49:01;;;;;;;;;;;;;;;18.94;62.11;98244.59;2074793;28;19951;-45
2023/05/14 02:50:03;;;;;;;;;;;;;;;18.93;62.20;98232.19;2076163;28;19924;-45
2023/05/14 02:51:05;;;;;;;;;;;;;;;18.96;62.36;98230.94;2076957;28;19925;-44
2023/05/14 02:52:05;;;;;;;;;;;;;;;18.95;62.31;98237.34;2076844;28;19981;-48
2023/05/14 02:53:07;;;;;;;;;;;;;;;18.95;62.03;98234.66;2075029;28;20178;-45
2023/05/14 02:54:09;;;;;;;;;;;;;;;18.96;62.33;98230.94;2076989;28;19924;-45
2023/05/14 02:55:11;;;;;;;;;;;;;;;18.94;62.25;98241.06;2076835;28;19928;-46
2023/05/14 02:56:11;;;;;;;;;;;;;;;18.93;62.42;98234.88;2077569;28;19925;-45
2023/05/14 02:57:13;;;;;;;;;;;;;;;18.93;62.22;98234.88;2076797;28;19960;-48
2023/05/14 02:58:13;;;;;;;;;;;;;;;18.92;62.39;98235.91;2078138;28;19970;-48
2023/05/14 02:59:15;;;;;;;;;;;;;;;18.93;62.25;98224.13;2076590;28;19928;-44
2023/05/14 03:00:15;;;;;;;;;;;;;;;18.92;62.14;98227.84;2076972;28;19982;-49
2023/05/14 03:01:17;;;;;;;;;;;;;;;18.93;62.17;98231.34;2077486;28;19986;-47
2023/05/14 03:02:18;;;;;;;;;;;;;;;18.92;62.22;98235.91;2077264;28;19929;-47
2023/05/14 03:03:19;;;;;;;;;;;;;;;18.92;62.01;98233.22;2078248;28;19928;-47
2023/05/14 03:04:20;;;;;;;;;;;;;;;18.93;61.95;98234.88;2076906;28;19925;-49
2023/05/14 03:05:21;;;;;;;;;;;;;;;18.92;62.39;98230.53;2077139;28;19925;-50
2023/05/14 03:06:22;;;;;;;;;;;;;;;18.93;62.13;98239.41;2076838;28;19921;-46
2023/05/14 03:07:23;;;;;;;;;;;;;;;18.92;62.13;98233.22;2077464;28;19986;-46
2023/05/14 03:08:24;;;;;;;;;;;;;;;18.94;62.35;98241.91;2078319;28;19980;-47
2023/05/14 03:09:27;;;;;;;;;;;;;;;18.93;62.10;98237.56;2078753;28;19924;-50
2023/05/14 03:10:27;;;;;;;;;;;;;;;18.92;62.13;98241.28;2076164;28;19929;-48
2023/05/14 03:11:29;;;;;;;;;;;;;;;18.92;62.21;98237.78;2076646;28;19927;-49
2023/05/14 03:12:29;;;;;;;;;;;;;;;18.93;62.23;98228.66;2079230;28;19978;-51
2023/05/14 03:13:31;;;;;;;;;;;;;;;18.92;62.41;98233.22;2076369;28;19982;-48
2023/05/14 03:14:31;;;;;;;;;;;;;;;18.93;61.94;98234.03;2079527;28;19925;-45
2023/05/14 03:15:33;;;;;;;;;;;;;;;18.92;62.27;98227.84;2078822;28;19979;-50
2023/05/14 03:16:33;;;;;;;;;;;;;;;18.92;62.36;98230.53;2079120;28;19958;-49
2023/05/14 03:17:34;;;;;;;;;;;;;;;18.92;62.06;98232.41;2076355;28;19929;-50
2023/05/14 03:18:35;;;;;;;;;;;;;;;18.93;62.35;98236.72;2076622;28;19925;-47
2023/05/14 03:19:37;;;;;;;;;;;;;;;18.92;62.22;98233.22;2075997;28;19967;-50
2023/05/14 03:20:37;;;;;;;;;;;;;;;18.91;62.45;98239.63;2075204;28;20018;-46
2023/05/14 03:21:38;;;;;;;;;;;;;;;18.92;62.19;98233.22;2077320;28;19920;-49
2023/05/14 03:22:39;;;;;;;;;;;;;;;18.92;61.98;98232.41;2079450;28;19929;-45
2023/05/14 03:23:41;;;;;;;;;;;;;;;18.92;62.27;98241.28;2076432;28;19986;-46
2023/05/14 03:24:42;;;;;;;;;;;;;;;18.91;62.35;98239.63;2076711;28;19924;-46
2023/05/14 03:25:44;;;;;;;;;;;;;;;18.93;62.17;98239.41;2078422;28;19936;-49
2023/05/14 03:26:44;;;;;;;;;;;;;;;18.91;62.42;98238.81;2076264;28;20541;-47
2023/05/14 03:27:46;;;;;;;;;;;;;;;18.92;62.37;98240.47;2077740;28;19952;-48
2023/05/14 03:28:46;;;;;;;;;;;;;;;18.89;62.35;98236.34;2076399;28;19953;-47
2023/05/14 03:29:47;;;;;;;;;;;;;;;18.89;62.06;98233.66;2078710;28;19950;-49
2023/05/14 03:30:48;;;;;;;;;;;;;;;18.90;62.15;98232.59;2076502;28;19921;-46
2023/05/14 03:31:49;;;;;;;;;;;;;;;18.91;62.21;98231.56;2077228;28;19995;-50
2023/05/14 03:32:50;;;;;;;;;;;;;;;18.91;62.31;98234.25;2077780;28;19932;-46
2023/05/14 03:33:51;;;;;;;;;;;;;;;18.92;62.09;98225.16;2076408;28;19925;-48
2023/05/14 03:34:53;;;;;;;;;;;;;;;18.91;62.05;98231.56;2075775;28;19928;-45
2023/05/14 03:35:54;;;;;;;;;;;;;;;18.89;62.00;98230.97;2077067;28;20010;-49
2023/05/14 03:36:55;;;;;;;;;;;;;;;18.89;62.07;98230.97;2066958;28;19975;-47
2023/05/14 03:37:58;;;;;;;;;;;;;;;18.91;62.26;98228.88;2075289;28;20020;-49
2023/05/14 03:38:59;;;;;;;;;;;;;;;18.91;62.30;98228.88;2076307;28;19927;-44
2023/05/14 03:40:01;;;;;;;;;;;;;;;18.91;61.96;98222.69;2076728;28;19974;-50
2023/05/14 03:41:02;;;;;;;;;;;;;;;18.90;62.20;98223.72;2076959;28;19966;-45
2023/05/14 03:42:03;;;;;;;;;;;;;;;18.89;62.40;98220.22;2076411;28;19925;-51
2023/05/14 03:43:04;;;;;;;;;;;;;;;18.88;62.16;98229.31;2074210;28;19921;-46
2023/05/14 03:44:05;;;;;;;;;;;;;;;18.87;62.13;98216.91;2077239;28;19928;-49
2023/05/14 03:45:07;;;;;;;;;;;;;;;18.88;62.35;98223.13;2078169;28;19943;-50
2023/05/14 03:46:08;;;;;;;;;;;;;;;18.88;62.25;98218.56;2078179;28;19929;-46
2023/05/14 03:47:09;;;;;;;;;;;;;;;18.89;62.32;98214.03;2076793;28;19929;-49
2023/05/14 03:48:10;;;;;;;;;;;;;;;18.87;62.15;98216.91;2077030;28;19928;-47
2023/05/14 03:49:11;;;;;;;;;;;;;;;18.86;62.29;98209.91;2074776;28;20334;-48
2023/05/14 03:50:12;;;;;;;;;;;;;;;18.87;62.15;98210.72;2077410;28;19924;-47
2023/05/14 03:51:13;;;;;;;;;;;;;;;18.87;62.37;98216.09;2076416;28;20793;-45
2023/05/14 03:52:14;;;;;;;;;;;;;;;18.87;62.18;98218.78;2076814;28;19925;-52
2023/05/14 03:53:15;;;;;;;;;;;;;;;18.86;62.12;98220.66;2075996;28;20022;-47
2023/05/14 03:54:16;;;;;;;;;;;;;;;18.87;62.35;98216.91;2079581;28;19929;-50
2023/05/14 03:55:18;;;;;;;;;;;;;;;18.87;62.25;98219.59;2079177;28;20414;-48
2023/05/14 03:56:19;;;;;;;;;;;;;;;18.89;62.39;98214.03;2076546;28;19925;-45
2023/05/14 03:57:21;;;;;;;;;;;;;;;18.87;62.32;98216.91;2075205;28;19920;-47
2023/05/14 03:58:21;;;;;;;;;;;;;;;18.87;62.19;98214.22;2080208;28;20455;-47
2023/05/14 03:59:23;;;;;;;;;;;;;;;18.88;62.15;98215.88;2078733;28;19928;-47
2023/05/14 04:00:23;;;;;;;;;;;;;;;18.87;62.07;98213.41;2077284;28;19978;-47
2023/05/14 04:01:25;;;;;;;;;;;;;;;18.87;62.34;98206.16;2077358;28;19936;-49
2023/05/14 04:02:25;;;;;;;;;;;;;;;18.86;62.39;98212.59;2077666;28;19963;-49
2023/05/14 04:03:27;;;;;;;;;;;;;;;18.87;62.08;98206.16;2077660;28;20626;-46
2023/05/14 04:04:27;;;;;;;;;;;;;;;18.90;62.38;98204.91;2077867;28;19946;-45
2023/05/14 04:05:28;;;;;;;;;;;;;;;18.87;61.93;98205.34;2077790;28;19986;-48
2023/05/14 04:06:29;;;;;;;;;;;;;;;18.86;62.03;98209.91;2077593;28;19921;-44
2023/05/14 04:07:31;;;;;;;;;;;;;;;18.87;62.12;98210.72;2075102;28;19933;-53
2023/05/14 04:08:31;;;;;;;;;;;;;;;18.87;62.09;98205.34;2077428;28;19975;-49
2023/05/14 04:09:33;;;;;;;;;;;;;;;18.86;62.17;98206.38;2077132;28;19921;-49
2023/05/14 04:10:35;;;;;;;;;;;;;;;18.86;62.09;98209.06;2077007;28;19928;-47
2023/05/14 04:11:36;;;;;;;;;;;;;;;18.85;62.21;98216.31;2076686;28;19925;-47
2023/05/14 04:12:37;;;;;;;;;;;;;;;18.87;62.08;98221.47;2078195;28;20810;-47
2023/05/14 04:13:38;;;;;;;;;;;;;;;18.87;62.01;98214.22;2076819;28;19951;-49
2023/05/14 04:14:39;;;;;;;;;;;;;;;18.86;62.24;98217.97;2077366;28;20666;-47
2023/05/14 04:15:40;;;;;;;;;;;;;;;18.86;62.31;98219.81;2077629;28;19925;-49
2023/05/14 04:16:41;;;;;;;;;;;;;;;18.87;62.32;98221.47;2074991;28;19931;-46
2023/05/14 04:17:42;;;;;;;;;;;;;;;18.87;61.90;98216.09;2079580;28;19987;-47
2023/05/14 04:18:42;;;;;;;;;;;;;;;18.87;62.08;98222.28;2077252;28;19925;-49
2023/05/14 04:19:44;;;;;;;;;;;;;;;18.87;62.07;98216.91;2078143;28;20428;-45
2023/05/14 04:20:44;;;;;;;;;;;;;;;18.86;62.04;98209.06;2076781;28;19929;-47
2023/05/14 04:21:46;;;;;;;;;;;;;;;18.86;62.05;98215.28;2076410;28;19930;-48
2023/05/14 04:22:46;;;;;;;;;;;;;;;18.85;62.36;98210.94;2078615;28;20370;-47
2023/05/14 04:23:48;;;;;;;;;;;;;;;18.87;62.16;98205.34;2075960;28;19924;-49
2023/05/14 04:24:49;;;;;;;;;;;;;;;18.85;61.98;98197.50;2074666;28;19925;-48
2023/05/14 04:25:51;;;;;;;;;;;;;;;18.84;61.90;98200.41;2077077;28;19925;-49
2023/05/14 04:26:52;;;;;;;;;;;;;;;18.84;62.30;98203.91;2075476;28;19924;-49
2023/05/14 04:27:53;;;;;;;;;;;;;;;18.85;62.05;98202.88;2077113;28;19928;-46
2023/05/14 04:28:54;;;;;;;;;;;;;;;18.86;62.04;98204.53;2078070;28;19925;-47
2023/05/14 04:29:55;;;;;;;;;;;;;;;18.86;62.13;98206.38;2076656;28;20452;-49
2023/05/14 04:30:55;;;;;;;;;;;;;;;18.83;62.39;98207.63;2076707;28;19921;-46
2023/05/14 04:31:57;;;;;;;;;;;;;;;18.84;62.35;98201.22;2077018;28;19940;-47
2023/05/14 04:32:57;;;;;;;;;;;;;;;18.84;62.39;98203.91;2077001;28;19924;-45
2023/05/14 04:33:59;;;;;;;;;;;;;;;18.84;62.33;98206.59;2076685;28;19931;-46
2023/05/14 04:34:59;;;;;;;;;;;;;;;18.84;62.23;98205.78;2075830;28;20804;-46
2023/05/14 04:36:01;;;;;;;;;;;;;;;18.84;62.19;98200.41;2077894;28;19925;-46
2023/05/14 04:37:02;;;;;;;;;;;;;;;18.83;62.07;98198.75;2076749;28;20638;-47
2023/05/14 04:38:04;;;;;;;;;;;;;;;18.84;62.33;98203.91;2074614;28;19924;-46
2023/05/14 04:39:05;;;;;;;;;;;;;;;18.83;62.24;98204.13;2076956;28;20344;-46
2023/05/14 04:40:10;;;;;;;;;;;;;;;18.83;62.15;98202.25;2077575;28;19928;-47
2023/05/14 04:41:11;;;;;;;;;;;;;;;18.82;62.26;98200.63;2075183;28;20449;-47
2023/05/14 04:42:13;;;;;;;;;;;;;;;18.83;62.15;98206.81;2075654;28;19954;-45
2023/05/14 04:43:13;;;;;;;;;;;;;;;18.83;62.16;98204.94;2076882;28;19925;-47
2023/05/14 04:44:15;;;;;;;;;;;;;;;18.84;62.00;98208.47;2075648;28;20191;-47
2023/05/14 04:45:16;;;;;;;;;;;;;;;18.84;62.13;98206.59;2075637;28;19978;-47
2023/05/14 04:46:18;;;;;;;;;;;;;;;18.83;62.03;98214.88;2077426;28;19929;-46
2023/05/14 04:47:19;;;;;;;;;;;;;;;18.83;62.20;98209.50;2075577;28;20005;-48
2023/05/14 04:48:21;;;;;;;;;;;;;;;18.82;62.31;98211.38;2075640;28;20026;-46
2023/05/14 04:49:21;;;;;;;;;;;;;;;18.82;61.92;98207.84;2074818;28;19958;-46
2023/05/14 04:50:23;;;;;;;;;;;;;;;18.84;62.00;98211.97;2075336;28;19932;-44
2023/05/14 04:51:23;;;;;;;;;;;;;;;18.82;61.98;98214.06;2072438;28;20679;-47
2023/05/14 04:52:25;;;;;;;;;;;;;;;18.84;61.90;98219.22;2076124;28;19928;-49
2023/05/14 04:53:25;;;;;;;;;;;;;;;18.82;62.23;98219.41;2074034;28;20481;-45
2023/05/14 04:54:27;;;;;;;;;;;;;;;18.82;62.37;98214.06;2074398;28;19929;-47
2023/05/14 04:55:27;;;;;;;;;;;;;;;18.82;62.09;98214.06;2073033;28;19986;-44
2023/05/14 04:56:30;;;;;;;;;;;;;;;18.82;62.07;98221.28;2075720;28;19990;-46
2023/05/14 04:57:31;;;;;;;;;;;;;;;18.82;62.12;98221.28;2070469;28;19963;-50
2023/05/14 04:58:32;;;;;;;;;;;;;;;18.81;62.00;98223.16;2074902;28;20022;-51
2023/05/14 04:59:32;;;;;;;;;;;;;;;18.83;62.00;98220.25;2074450;28;20007;-47
2023/05/14 05:00:34;;;;;;;;;;;;;;;18.82;62.30;98221.28;2070122;28;19925;-48
2023/05/14 05:01:35;;;;;;;;;;;;;;;18.80;62.12;98224.19;2073575;28;19971;-45
2023/05/14 05:02:36;;;;;;;;;;;;;;;18.82;62.03;98224.78;2073161;28;19975;-50
2023/05/14 05:03:37;;;;;;;;;;;;;;;18.82;62.00;98224.78;2071923;28;19921;-46
2023/05/14 05:04:38;;;;;;;;;;;;;;;18.80;62.06;98226.88;2077659;28;19966;-46
2023/05/14 05:05:39;;;;;;;;;;;;;;;18.80;61.92;98221.50;2070937;28;19979;-48
2023/05/14 05:06:40;;;;;;;;;;;;;;;18.81;62.14;98227.72;2074341;28;20303;-48
2023/05/14 05:07:40;;;;;;;;;;;;;;;18.81;62.16;98225.84;2073802;28;19975;-46
2023/05/14 05:08:42;;;;;;;;;;;;;;;18.81;62.05;98223.16;2074866;28;20204;-48
2023/05/14 05:09:42;;;;;;;;;;;;;;;18.80;62.32;98221.50;2073781;28;19986;-46
2023/05/14 05:10:44;;;;;;;;;;;;;;;18.80;61.91;98232.25;2073296;28;21104;-48
2023/05/14 05:11:47;;;;;;;;;;;;;;;18.80;61.99;98228.72;2071561;28;19982;-45
2023/05/14 05:12:47;;;;;;;;;;;;;;;18.81;62.01;98233.09;2073673;28;19924;-47
2023/05/14 05:13:48;;;;;;;;;;;;;;;18.82;62.32;98229.34;2073911;28;19932;-49
2023/05/14 05:14:49;;;;;;;;;;;;;;;18.82;62.23;98230.16;2072198;28;19921;-46
2023/05/14 05:15:50;;;;;;;;;;;;;;;18.81;62.14;98227.72;2073267;28;20089;-47
2023/05/14 05:16:51;;;;;;;;;;;;;;;18.80;61.90;98232.25;2075020;28;19929;-47
2023/05/14 05:17:52;;;;;;;;;;;;;;;18.77;62.21;98235.34;2073767;28;20397;-48
2023/05/14 05:18:53;;;;;;;;;;;;;;;18.78;62.12;98228.97;2075365;28;20424;-46
2023/05/14 05:19:54;;;;;;;;;;;;;;;18.77;62.18;98227.31;2073455;28;19925;-46